sensor_id;sensor_type;location;lat;lon;timestamp;pressure;altitude;pressure_sealevel;temperature;humidity
74794;BME280;63320;50.768;6.724;2023-01-19T00:01:27;98915.78;;;1.26;74.34
74794;BME280;63320;50.768;6.724;2023-01-19T00:03:53;98920.00;;;1.29;74.27
74794;BME280;63320;50.768;6.724;2023-01-19T00:06:19;98915.31;;;1.14;74.86
74794;BME280;63320;50.768;6.724;2023-01-19T00:08:44;98916.06;;;1.17;74.51
74794;BME280;63320;50.768;6.724;2023-01-19T00:11:10;98926.78;;;1.05;75.17
74794;BME280;63320;50.768;6.724;2023-01-19T00:13:37;98936.28;;;1.06;75.22
74794;BME280;63320;50.768;6.724;2023-01-19T00:16:02;98925.38;;;1.23;74.33
74794;BME280;63320;50.768;6.724;2023-01-19T00:18:28;98936.81;;;1.44;73.68
74794;BME280;63320;50.768;6.724;2023-01-19T00:20:53;98939.22;;;1.22;74.52
74794;BME280;63320;50.768;6.724;2023-01-19T00:23:18;98933.94;;;1.25;74.13
74794;BME280;63320;50.768;6.724;2023-01-19T00:25:44;98928.69;;;1.28;73.66
74794;BME280;63320;50.768;6.724;2023-01-19T00:28:09;98943.38;;;1.27;73.79
74794;BME280;63320;50.768;6.724;2023-01-19T00:30:37;98939.69;;;1.07;74.92
74794;BME280;63320;50.768;6.724;2023-01-19T00:33:03;98943.91;;;1.09;74.77
74794;BME280;63320;50.768;6.724;2023-01-19T00:35:28;98935.09;;;1.16;75.18
74794;BME280;63320;50.768;6.724;2023-01-19T00:37:54;98941.75;;;0.95;75.77
74794;BME280;63320;50.768;6.724;2023-01-19T00:40:20;98938.16;;;0.99;75.46
74794;BME280;63320;50.768;6.724;2023-01-19T00:42:45;98944.06;;;1.04;75.06
74794;BME280;63320;50.768;6.724;2023-01-19T00:45:12;98928.75;;;1.25;74.08
74794;BME280;63320;50.768;6.724;2023-01-19T00:47:39;98920.06;;;1.27;74.00
74794;BME280;63320;50.768;6.724;2023-01-19T00:50:06;98934.25;;;1.16;74.44
74794;BME280;63320;50.768;6.724;2023-01-19T00:52:31;98929.06;;;1.16;74.77
74794;BME280;63320;50.768;6.724;2023-01-19T00:54:56;98925.81;;;1.37;74.61
74794;BME280;63320;50.768;6.724;2023-01-19T00:57:22;98928.75;;;1.25;74.22
74794;BME280;63320;50.768;6.724;2023-01-19T00:59:47;98921.00;;;1.25;74.68
74794;BME280;63320;50.768;6.724;2023-01-19T01:02:13;98927.19;;;1.21;74.86
74794;BME280;63320;50.768;6.724;2023-01-19T01:04:39;98920.56;;;1.39;73.61
74794;BME280;63320;50.768;6.724;2023-01-19T01:07:05;98916.56;;;1.57;73.08
74794;BME280;63320;50.768;6.724;2023-01-19T01:09:30;98917.28;;;1.34;73.41
74794;BME280;63320;50.768;6.724;2023-01-19T01:11:56;98922.78;;;1.51;73.04
74794;BME280;63320;50.768;6.724;2023-01-19T01:14:22;98919.22;;;1.27;73.78
74794;BME280;63320;50.768;6.724;2023-01-19T01:16:47;98926.38;;;1.45;73.30
74794;BME280;63320;50.768;6.724;2023-01-19T01:19:12;98927.22;;;1.47;73.55
74794;BME280;63320;50.768;6.724;2023-01-19T01:21:39;98925.88;;;1.34;73.40
74794;BME280;63320;50.768;6.724;2023-01-19T01:24:05;98926.09;;;1.28;73.92
74794;BME280;63320;50.768;6.724;2023-01-19T01:26:31;98924.91;;;1.10;74.18
74794;BME280;63320;50.768;6.724;2023-01-19T01:28:56;98932.53;;;1.15;74.32
74794;BME280;63320;50.768;6.724;2023-01-19T01:31:21;98932.25;;;1.24;73.87
74794;BME280;63320;50.768;6.724;2023-01-19T01:33:47;98937.00;;;1.10;74.31
74794;BME280;63320;50.768;6.724;2023-01-19T01:36:12;98945.59;;;1.12;74.08
74794;BME280;63320;50.768;6.724;2023-01-19T01:38:39;98948.53;;;0.99;74.68
74794;BME280;63320;50.768;6.724;2023-01-19T01:41:04;98940.06;;;1.22;74.41
74794;BME280;63320;50.768;6.724;2023-01-19T01:43:41;98942.66;;;1.22;73.75
74794;BME280;63320;50.768;6.724;2023-01-19T01:46:07;98939.09;;;1.26;73.73
74794;BME280;63320;50.768;6.724;2023-01-19T01:48:33;98936.38;;;1.29;73.28
74794;BME280;63320;50.768;6.724;2023-01-19T01:50:59;98930.09;;;1.38;73.61
74794;BME280;63320;50.768;6.724;2023-01-19T01:53:29;98938.56;;;1.43;72.97
74794;BME280;63320;50.768;6.724;2023-01-19T01:55:58;98933.84;;;1.28;73.66
74794;BME280;63320;50.768;6.724;2023-01-19T01:58:26;98953.69;;;0.99;74.51
74794;BME280;63320;50.768;6.724;2023-01-19T02:00:51;98952.78;;;1.02;74.75
74794;BME280;63320;50.768;6.724;2023-01-19T02:03:17;98954.72;;;0.94;74.75
74794;BME280;63320;50.768;6.724;2023-01-19T02:05:43;98962.88;;;0.82;75.39
74794;BME280;63320;50.768;6.724;2023-01-19T02:08:12;98954.25;;;0.81;75.93
74794;BME280;63320;50.768;6.724;2023-01-19T02:10:40;98961.47;;;0.99;75.18
74794;BME280;63320;50.768;6.724;2023-01-19T02:13:07;98954.78;;;0.92;75.40
74794;BME280;63320;50.768;6.724;2023-01-19T02:15:32;98942.28;;;1.07;75.28
74794;BME280;63320;50.768;6.724;2023-01-19T02:17:57;98950.13;;;1.03;74.79
74794;BME280;63320;50.768;6.724;2023-01-19T02:20:24;98948.88;;;1.17;74.34
74794;BME280;63320;50.768;6.724;2023-01-19T02:22:54;98949.19;;;1.34;74.08
74794;BME280;63320;50.768;6.724;2023-01-19T02:25:22;98951.47;;;1.17;74.76
74794;BME280;63320;50.768;6.724;2023-01-19T02:27:48;98940.69;;;1.31;74.75
74794;BME280;63320;50.768;6.724;2023-01-19T02:30:15;98940.91;;;1.23;74.66
74794;BME280;63320;50.768;6.724;2023-01-19T02:32:41;98942.63;;;1.50;73.71
74794;BME280;63320;50.768;6.724;2023-01-19T02:35:07;98938.69;;;1.39;73.72
74794;BME280;63320;50.768;6.724;2023-01-19T02:37:35;98938.13;;;1.31;74.55
74794;BME280;63320;50.768;6.724;2023-01-19T02:40:02;98943.72;;;1.43;73.98
74794;BME280;63320;50.768;6.724;2023-01-19T02:42:33;98939.88;;;1.57;73.52
74794;BME280;63320;50.768;6.724;2023-01-19T02:45:02;98948.63;;;1.52;73.58
74794;BME280;63320;50.768;6.724;2023-01-19T02:47:36;98941.69;;;1.53;73.48
74794;BME280;63320;50.768;6.724;2023-01-19T02:50:01;98945.13;;;1.53;73.90
74794;BME280;63320;50.768;6.724;2023-01-19T02:52:27;98944.50;;;1.47;73.37
74794;BME280;63320;50.768;6.724;2023-01-19T02:55:00;98938.28;;;1.52;73.38
74794;BME280;63320;50.768;6.724;2023-01-19T02:57:41;98941.16;;;1.70;72.87
74794;BME280;63320;50.768;6.724;2023-01-19T03:00:20;98935.47;;;1.59;72.79
74794;BME280;63320;50.768;6.724;2023-01-19T03:02:58;98940.72;;;1.57;73.09
74794;BME280;63320;50.768;6.724;2023-01-19T03:05:33;98937.38;;;1.53;73.25
74794;BME280;63320;50.768;6.724;2023-01-19T03:08:06;98928.69;;;1.54;73.55
74794;BME280;63320;50.768;6.724;2023-01-19T03:10:39;98938.97;;;1.58;72.90
74794;BME280;63320;50.768;6.724;2023-01-19T03:13:12;98936.44;;;1.56;72.77
74794;BME280;63320;50.768;6.724;2023-01-19T03:15:43;98934.22;;;1.44;73.42
74794;BME280;63320;50.768;6.724;2023-01-19T03:18:12;98930.44;;;1.54;72.96
74794;BME280;63320;50.768;6.724;2023-01-19T03:20:39;98935.13;;;1.69;72.25
74794;BME280;63320;50.768;6.724;2023-01-19T03:23:09;98937.06;;;1.63;72.63
74794;BME280;63320;50.768;6.724;2023-01-19T03:25:38;98943.44;;;1.52;72.77
74794;BME280;63320;50.768;6.724;2023-01-19T03:28:05;98938.00;;;1.60;72.40
74794;BME280;63320;50.768;6.724;2023-01-19T03:30:37;98931.91;;;1.63;72.01
74794;BME280;63320;50.768;6.724;2023-01-19T03:33:07;98935.41;;;1.60;72.20
74794;BME280;63320;50.768;6.724;2023-01-19T03:35:37;98936.31;;;1.59;72.45
74794;BME280;63320;50.768;6.724;2023-01-19T03:38:11;98926.22;;;1.51;72.15
74794;BME280;63320;50.768;6.724;2023-01-19T03:40:38;98933.72;;;1.59;71.76
74794;BME280;63320;50.768;6.724;2023-01-19T03:43:04;98934.78;;;1.53;72.42
74794;BME280;63320;50.768;6.724;2023-01-19T03:45:32;98938.06;;;1.59;72.06
74794;BME280;63320;50.768;6.724;2023-01-19T03:47:58;98943.16;;;1.62;71.87
74794;BME280;63320;50.768;6.724;2023-01-19T03:50:26;98941.06;;;1.73;71.59
74794;BME280;63320;50.768;6.724;2023-01-19T03:53:05;98944.44;;;1.75;71.15
74794;BME280;63320;50.768;6.724;2023-01-19T03:55:30;98951.78;;;1.62;71.24
74794;BME280;63320;50.768;6.724;2023-01-19T03:57:56;98952.84;;;1.55;71.86
74794;BME280;63320;50.768;6.724;2023-01-19T04:00:21;98950.59;;;1.72;71.54
74794;BME280;63320;50.768;6.724;2023-01-19T04:02:48;98957.66;;;1.67;71.91
74794;BME280;63320;50.768;6.724;2023-01-19T04:05:13;98950.47;;;1.75;71.27
74794;BME280;63320;50.768;6.724;2023-01-19T04:07:39;98951.00;;;1.59;71.40
74794;BME280;63320;50.768;6.724;2023-01-19T04:10:05;98957.25;;;1.79;71.15
74794;BME280;63320;50.768;6.724;2023-01-19T04:12:31;98954.72;;;1.78;70.94
74794;BME280;63320;50.768;6.724;2023-01-19T04:14:56;98952.34;;;1.70;71.37
74794;BME280;63320;50.768;6.724;2023-01-19T04:17:21;98963.47;;;1.74;71.05
74794;BME280;63320;50.768;6.724;2023-01-19T04:19:48;98969.50;;;1.74;71.04
74794;BME280;63320;50.768;6.724;2023-01-19T04:22:13;98963.81;;;1.63;71.45
74794;BME280;63320;50.768;6.724;2023-01-19T04:24:39;98957.44;;;1.73;71.07
74794;BME280;63320;50.768;6.724;2023-01-19T04:27:04;98968.09;;;1.64;71.23
74794;BME280;63320;50.768;6.724;2023-01-19T04:29:29;98961.19;;;1.65;71.75
74794;BME280;63320;50.768;6.724;2023-01-19T04:31:54;98963.97;;;1.59;71.63
74794;BME280;63320;50.768;6.724;2023-01-19T04:34:20;98950.72;;;1.68;71.58
74794;BME280;63320;50.768;6.724;2023-01-19T04:36:46;98959.84;;;1.79;71.22
74794;BME280;63320;50.768;6.724;2023-01-19T04:39:12;98960.50;;;1.86;70.77
74794;BME280;63320;50.768;6.724;2023-01-19T04:41:37;98959.97;;;1.76;71.37
74794;BME280;63320;50.768;6.724;2023-01-19T04:44:03;98954.78;;;1.76;71.37
74794;BME280;63320;50.768;6.724;2023-01-19T04:46:28;98960.09;;;1.72;70.92
74794;BME280;63320;50.768;6.724;2023-01-19T04:48:54;98957.59;;;1.69;71.70
74794;BME280;63320;50.768;6.724;2023-01-19T04:51:19;98957.38;;;1.76;71.38
74794;BME280;63320;50.768;6.724;2023-01-19T04:53:46;98950.44;;;1.77;71.04
74794;BME280;63320;50.768;6.724;2023-01-19T04:56:11;98954.84;;;1.73;71.48
74794;BME280;63320;50.768;6.724;2023-01-19T04:58:36;98944.56;;;1.72;71.40
74794;BME280;63320;50.768;6.724;2023-01-19T05:01:06;98948.13;;;1.68;71.88
74794;BME280;63320;50.768;6.724;2023-01-19T05:03:31;98952.25;;;1.73;71.69
74794;BME280;63320;50.768;6.724;2023-01-19T05:05:56;98943.00;;;1.66;71.50
74794;BME280;63320;50.768;6.724;2023-01-19T05:08:22;98954.91;;;1.72;71.58
74794;BME280;63320;50.768;6.724;2023-01-19T05:10:48;98949.31;;;1.84;71.46
74794;BME280;63320;50.768;6.724;2023-01-19T05:13:14;98951.44;;;1.73;71.69
74794;BME280;63320;50.768;6.724;2023-01-19T05:15:39;98955.63;;;1.75;71.79
74794;BME280;63320;50.768;6.724;2023-01-19T05:18:05;98949.94;;;1.91;71.64
74794;BME280;63320;50.768;6.724;2023-01-19T05:20:30;98951.00;;;1.85;71.94
74794;BME280;63320;50.768;6.724;2023-01-19T05:22:55;98953.56;;;1.87;71.79
74794;BME280;63320;50.768;6.724;2023-01-19T05:25:21;98950.63;;;1.97;71.74
74794;BME280;63320;50.768;6.724;2023-01-19T05:27:47;98955.75;;;1.72;72.66
74794;BME280;63320;50.768;6.724;2023-01-19T05:30:13;98962.88;;;1.92;72.01
74794;BME280;63320;50.768;6.724;2023-01-19T05:32:39;98970.06;;;1.84;72.24
74794;BME280;63320;50.768;6.724;2023-01-19T05:35:05;98969.81;;;1.92;72.92
74794;BME280;63320;50.768;6.724;2023-01-19T05:37:30;98969.72;;;1.68;73.05
74794;BME280;63320;50.768;6.724;2023-01-19T05:39:56;98976.94;;;1.85;72.86
74794;BME280;63320;50.768;6.724;2023-01-19T05:42:21;98978.03;;;1.78;73.48
74794;BME280;63320;50.768;6.724;2023-01-19T05:44:48;98985.03;;;1.76;73.17
74794;BME280;63320;50.768;6.724;2023-01-19T05:47:13;98987.00;;;1.68;74.05
74794;BME280;63320;50.768;6.724;2023-01-19T05:49:39;98987.09;;;1.65;74.38
74794;BME280;63320;50.768;6.724;2023-01-19T05:52:04;98988.19;;;1.84;74.11
74794;BME280;63320;50.768;6.724;2023-01-19T05:54:29;98992.66;;;2.05;73.20
74794;BME280;63320;50.768;6.724;2023-01-19T05:56:55;98986.50;;;1.83;73.27
74794;BME280;63320;50.768;6.724;2023-01-19T05:59:20;98982.41;;;2.02;73.21
74794;BME280;63320;50.768;6.724;2023-01-19T06:01:47;98992.38;;;2.15;72.67
74794;BME280;63320;50.768;6.724;2023-01-19T06:04:12;98991.13;;;2.00;73.74
74794;BME280;63320;50.768;6.724;2023-01-19T06:06:37;99003.09;;;2.04;73.67
74794;BME280;63320;50.768;6.724;2023-01-19T06:09:03;99003.03;;;2.05;74.97
74794;BME280;63320;50.768;6.724;2023-01-19T06:11:28;99007.66;;;1.97;76.33
74794;BME280;63320;50.768;6.724;2023-01-19T06:13:53;99002.50;;;1.69;77.65
74794;BME280;63320;50.768;6.724;2023-01-19T06:16:19;99009.34;;;1.72;78.79
74794;BME280;63320;50.768;6.724;2023-01-19T06:18:45;98999.16;;;1.66;79.96
74794;BME280;63320;50.768;6.724;2023-01-19T06:21:11;99007.59;;;1.72;80.27
74794;BME280;63320;50.768;6.724;2023-01-19T06:23:36;99019.13;;;1.62;81.25
74794;BME280;63320;50.768;6.724;2023-01-19T06:26:02;99011.59;;;1.54;81.66
74794;BME280;63320;50.768;6.724;2023-01-19T06:28:28;99029.59;;;1.29;83.10
74794;BME280;63320;50.768;6.724;2023-01-19T06:30:54;99033.03;;;1.32;83.83
74794;BME280;63320;50.768;6.724;2023-01-19T06:33:20;99026.03;;;1.34;84.56
74794;BME280;63320;50.768;6.724;2023-01-19T06:35:48;99035.69;;;1.28;84.54
74794;BME280;63320;50.768;6.724;2023-01-19T06:38:14;99022.28;;;1.14;85.40
74794;BME280;63320;50.768;6.724;2023-01-19T06:40:40;99035.25;;;1.14;85.90
74794;BME280;63320;50.768;6.724;2023-01-19T06:43:05;99033.28;;;1.22;85.53
74794;BME280;63320;50.768;6.724;2023-01-19T06:45:31;99034.47;;;0.81;86.33
74794;BME280;63320;50.768;6.724;2023-01-19T06:47:56;99035.84;;;0.93;86.88
74794;BME280;63320;50.768;6.724;2023-01-19T06:50:21;99032.34;;;1.25;86.58
74794;BME280;63320;50.768;6.724;2023-01-19T06:52:50;99037.13;;;0.78;87.14
74794;BME280;63320;50.768;6.724;2023-01-19T06:55:15;99030.50;;;0.68;87.71
74794;BME280;63320;50.768;6.724;2023-01-19T06:57:41;99040.09;;;0.64;87.84
74794;BME280;63320;50.768;6.724;2023-01-19T07:00:07;99033.03;;;0.71;88.04
74794;BME280;63320;50.768;6.724;2023-01-19T07:02:33;99055.00;;;0.87;88.22
74794;BME280;63320;50.768;6.724;2023-01-19T07:04:58;99048.66;;;0.97;87.95
74794;BME280;63320;50.768;6.724;2023-01-19T07:07:23;99051.38;;;0.62;88.28
74794;BME280;63320;50.768;6.724;2023-01-19T07:09:51;99053.22;;;0.57;88.70
74794;BME280;63320;50.768;6.724;2023-01-19T07:12:16;99052.72;;;0.76;88.70
74794;BME280;63320;50.768;6.724;2023-01-19T07:14:41;99063.22;;;0.70;88.31
74794;BME280;63320;50.768;6.724;2023-01-19T07:17:06;99054.69;;;0.67;88.74
74794;BME280;63320;50.768;6.724;2023-01-19T07:19:32;99059.63;;;0.76;88.30
74794;BME280;63320;50.768;6.724;2023-01-19T07:21:57;99075.69;;;0.87;88.20
74794;BME280;63320;50.768;6.724;2023-01-19T07:24:22;99081.47;;;0.97;87.76
74794;BME280;63320;50.768;6.724;2023-01-19T07:26:49;99081.13;;;0.78;88.03
74794;BME280;63320;50.768;6.724;2023-01-19T07:29:14;99077.91;;;0.68;88.35
74794;BME280;63320;50.768;6.724;2023-01-19T07:31:40;99091.03;;;0.62;88.95
74794;BME280;63320;50.768;6.724;2023-01-19T07:34:05;99084.59;;;0.77;88.83
74794;BME280;63320;50.768;6.724;2023-01-19T07:36:31;99097.75;;;0.68;89.15
74794;BME280;63320;50.768;6.724;2023-01-19T07:38:56;99090.06;;;0.66;88.55
74794;BME280;63320;50.768;6.724;2023-01-19T07:41:22;99097.69;;;0.71;88.48
74794;BME280;63320;50.768;6.724;2023-01-19T07:43:49;99103.47;;;0.81;88.68
74794;BME280;63320;50.768;6.724;2023-01-19T07:46:14;99103.75;;;1.02;88.22
74794;BME280;63320;50.768;6.724;2023-01-19T07:48:39;99105.91;;;0.87;88.07
74794;BME280;63320;50.768;6.724;2023-01-19T07:51:05;99112.41;;;0.69;88.27
74794;BME280;63320;50.768;6.724;2023-01-19T07:53:30;99110.00;;;0.94;88.87
74794;BME280;63320;50.768;6.724;2023-01-19T07:55:56;99113.34;;;0.66;88.50
74794;BME280;63320;50.768;6.724;2023-01-19T07:58:21;99112.88;;;0.83;88.66
74794;BME280;63320;50.768;6.724;2023-01-19T08:00:48;99106.09;;;0.79;89.20
74794;BME280;63320;50.768;6.724;2023-01-19T08:03:13;99102.09;;;0.67;89.08
74794;BME280;63320;50.768;6.724;2023-01-19T08:05:39;99105.66;;;0.96;88.92
74794;BME280;63320;50.768;6.724;2023-01-19T08:08:04;99109.56;;;0.78;88.24
74794;BME280;63320;50.768;6.724;2023-01-19T08:10:29;99114.16;;;0.99;88.47
74794;BME280;63320;50.768;6.724;2023-01-19T08:12:56;99111.09;;;0.85;88.25
74794;BME280;63320;50.768;6.724;2023-01-19T08:15:22;99105.19;;;0.82;88.20
74794;BME280;63320;50.768;6.724;2023-01-19T08:17:55;99106.78;;;0.86;88.30
74794;BME280;63320;50.768;6.724;2023-01-19T08:20:20;99105.50;;;1.02;87.68
74794;BME280;63320;50.768;6.724;2023-01-19T08:22:46;99113.31;;;1.00;87.50
74794;BME280;63320;50.768;6.724;2023-01-19T08:25:11;99121.09;;;0.99;87.83
74794;BME280;63320;50.768;6.724;2023-01-19T08:27:36;99124.75;;;0.92;87.66
74794;BME280;63320;50.768;6.724;2023-01-19T08:30:02;99120.38;;;0.94;87.49
74794;BME280;63320;50.768;6.724;2023-01-19T08:32:27;99119.63;;;0.89;87.79
74794;BME280;63320;50.768;6.724;2023-01-19T08:34:54;99126.47;;;0.91;87.38
74794;BME280;63320;50.768;6.724;2023-01-19T08:37:19;99133.22;;;0.97;87.22
74794;BME280;63320;50.768;6.724;2023-01-19T08:39:44;99142.34;;;1.10;86.82
74794;BME280;63320;50.768;6.724;2023-01-19T08:42:10;99143.00;;;1.18;85.79
74794;BME280;63320;50.768;6.724;2023-01-19T08:44:35;99143.91;;;1.17;85.55
74794;BME280;63320;50.768;6.724;2023-01-19T08:47:00;99158.38;;;1.24;85.62
74794;BME280;63320;50.768;6.724;2023-01-19T08:49:26;99155.63;;;1.31;85.13
74794;BME280;63320;50.768;6.724;2023-01-19T08:51:52;99165.81;;;1.37;85.30
74794;BME280;63320;50.768;6.724;2023-01-19T08:54:18;99163.00;;;1.44;85.22
74794;BME280;63320;50.768;6.724;2023-01-19T08:56:43;99172.31;;;1.50;84.71
74794;BME280;63320;50.768;6.724;2023-01-19T08:59:08;99167.31;;;1.44;84.47
74794;BME280;63320;50.768;6.724;2023-01-19T09:01:34;99174.97;;;1.48;84.55
74794;BME280;63320;50.768;6.724;2023-01-19T09:03:59;99183.00;;;1.39;84.28
74794;BME280;63320;50.768;6.724;2023-01-19T09:06:25;99188.69;;;1.52;83.91
74794;BME280;63320;50.768;6.724;2023-01-19T09:08:51;99181.97;;;1.45;84.28
74794;BME280;63320;50.768;6.724;2023-01-19T09:11:17;99188.38;;;1.63;84.22
74794;BME280;63320;50.768;6.724;2023-01-19T09:13:42;99183.16;;;1.64;84.32
74794;BME280;63320;50.768;6.724;2023-01-19T09:16:08;99186.50;;;1.68;83.99
74794;BME280;63320;50.768;6.724;2023-01-19T09:18:34;99197.06;;;1.62;83.86
74794;BME280;63320;50.768;6.724;2023-01-19T09:21:00;99195.50;;;1.54;84.09
74794;BME280;63320;50.768;6.724;2023-01-19T09:23:26;99191.63;;;1.69;84.32
74794;BME280;63320;50.768;6.724;2023-01-19T09:25:56;99195.00;;;1.73;84.04
74794;BME280;63320;50.768;6.724;2023-01-19T09:28:22;99198.94;;;1.86;84.25
74794;BME280;63320;50.768;6.724;2023-01-19T09:30:47;99198.81;;;1.60;83.91
74794;BME280;63320;50.768;6.724;2023-01-19T09:33:14;99201.34;;;1.63;84.19
74794;BME280;63320;50.768;6.724;2023-01-19T09:35:41;99207.16;;;1.71;83.84
74794;BME280;63320;50.768;6.724;2023-01-19T09:38:08;99211.34;;;1.75;83.67
74794;BME280;63320;50.768;6.724;2023-01-19T09:40:34;99213.69;;;1.84;83.52
74794;BME280;63320;50.768;6.724;2023-01-19T09:43:11;99206.81;;;1.83;83.77
74794;BME280;63320;50.768;6.724;2023-01-19T09:45:40;99209.56;;;1.77;83.75
74794;BME280;63320;50.768;6.724;2023-01-19T09:48:21;99210.97;;;1.89;83.51
74794;BME280;63320;50.768;6.724;2023-01-19T09:50:48;99213.06;;;1.76;83.62
74794;BME280;63320;50.768;6.724;2023-01-19T09:53:19;99212.25;;;1.74;83.38
74794;BME280;63320;50.768;6.724;2023-01-19T09:55:47;99220.41;;;1.91;83.49
74794;BME280;63320;50.768;6.724;2023-01-19T09:58:15;99223.97;;;1.87;83.38
74794;BME280;63320;50.768;6.724;2023-01-19T10:00:42;99226.19;;;1.99;83.17
74794;BME280;63320;50.768;6.724;2023-01-19T10:03:13;99227.41;;;1.88;82.94
74794;BME280;63320;50.768;6.724;2023-01-19T10:05:43;99230.47;;;2.00;82.80
74794;BME280;63320;50.768;6.724;2023-01-19T10:08:12;99222.69;;;2.00;83.14
74794;BME280;63320;50.768;6.724;2023-01-19T10:10:41;99233.75;;;2.07;82.76
74794;BME280;63320;50.768;6.724;2023-01-19T10:13:15;99228.78;;;1.99;82.63
74794;BME280;63320;50.768;6.724;2023-01-19T10:15:47;99223.97;;;1.87;82.72
74794;BME280;63320;50.768;6.724;2023-01-19T10:18:18;99225.13;;;2.06;82.32
74794;BME280;63320;50.768;6.724;2023-01-19T10:20:47;99231.03;;;2.12;82.43
74794;BME280;63320;50.768;6.724;2023-01-19T10:23:22;99251.66;;;2.15;82.13
74794;BME280;63320;50.768;6.724;2023-01-19T10:25:49;99232.06;;;2.06;82.04
74794;BME280;63320;50.768;6.724;2023-01-19T10:28:21;99239.97;;;2.01;82.09
74794;BME280;63320;50.768;6.724;2023-01-19T10:30:48;99239.16;;;1.99;82.02
74794;BME280;63320;50.768;6.724;2023-01-19T10:33:15;99245.69;;;2.13;82.10
74794;BME280;63320;50.768;6.724;2023-01-19T10:35:40;99238.22;;;2.02;81.90
74794;BME280;63320;50.768;6.724;2023-01-19T10:38:11;99251.81;;;2.10;81.59
74794;BME280;63320;50.768;6.724;2023-01-19T10:40:44;99248.88;;;2.22;81.84
74794;BME280;63320;50.768;6.724;2023-01-19T10:43:34;99248.22;;;2.14;82.06
74794;BME280;63320;50.768;6.724;2023-01-19T10:46:00;99252.50;;;2.15;81.89
74794;BME280;63320;50.768;6.724;2023-01-19T10:48:36;99273.25;;;2.17;81.29
74794;BME280;63320;50.768;6.724;2023-01-19T10:51:02;99247.97;;;2.23;81.28
74794;BME280;63320;50.768;6.724;2023-01-19T10:53:28;99252.38;;;2.21;81.31
74794;BME280;63320;50.768;6.724;2023-01-19T10:56:11;99269.38;;;2.30;81.27
74794;BME280;63320;50.768;6.724;2023-01-19T10:58:39;99259.81;;;2.32;81.03
74794;BME280;63320;50.768;6.724;2023-01-19T11:01:12;99253.53;;;2.39;81.57
74794;BME280;63320;50.768;6.724;2023-01-19T11:03:38;99260.59;;;2.34;81.02
74794;BME280;63320;50.768;6.724;2023-01-19T11:06:19;99259.53;;;2.41;81.28
74794;BME280;63320;50.768;6.724;2023-01-19T11:08:46;99257.97;;;2.36;80.60
74794;BME280;63320;50.768;6.724;2023-01-19T11:11:12;99254.16;;;2.47;81.06
74794;BME280;63320;50.768;6.724;2023-01-19T11:13:39;99272.47;;;2.43;80.76
74794;BME280;63320;50.768;6.724;2023-01-19T11:16:07;99262.66;;;2.52;80.15
74794;BME280;63320;50.768;6.724;2023-01-19T11:18:40;99262.88;;;2.45;80.52
74794;BME280;63320;50.768;6.724;2023-01-19T11:21:08;99254.81;;;2.54;80.25
74794;BME280;63320;50.768;6.724;2023-01-19T11:23:37;99261.19;;;2.72;80.42
74794;BME280;63320;50.768;6.724;2023-01-19T11:26:04;99269.97;;;2.68;80.44
74794;BME280;63320;50.768;6.724;2023-01-19T11:28:32;99262.97;;;2.70;80.74
74794;BME280;63320;50.768;6.724;2023-01-19T11:31:01;99269.13;;;2.67;80.50
74794;BME280;63320;50.768;6.724;2023-01-19T11:33:32;99257.69;;;2.73;79.54
74794;BME280;63320;50.768;6.724;2023-01-19T11:36:04;99262.06;;;2.71;79.62
74794;BME280;63320;50.768;6.724;2023-01-19T11:38:30;99263.44;;;2.82;80.15
74794;BME280;63320;50.768;6.724;2023-01-19T11:40:57;99259.84;;;2.87;79.02
74794;BME280;63320;50.768;6.724;2023-01-19T11:43:27;99254.25;;;2.99;79.04
74794;BME280;63320;50.768;6.724;2023-01-19T11:45:53;99256.00;;;2.98;78.19
74794;BME280;63320;50.768;6.724;2023-01-19T11:48:26;99246.41;;;3.00;78.49
74794;BME280;63320;50.768;6.724;2023-01-19T11:50:52;99264.16;;;2.86;78.21
74794;BME280;63320;50.768;6.724;2023-01-19T11:53:21;99256.16;;;2.94;78.33
74794;BME280;63320;50.768;6.724;2023-01-19T11:55:50;99262.78;;;3.02;78.64
74794;BME280;63320;50.768;6.724;2023-01-19T11:58:17;99266.25;;;3.03;78.18
74794;BME280;63320;50.768;6.724;2023-01-19T12:00:45;99261.97;;;3.00;78.03
74794;BME280;63320;50.768;6.724;2023-01-19T12:03:22;99262.59;;;3.08;78.28
74794;BME280;63320;50.768;6.724;2023-01-19T12:05:51;99260.97;;;3.04;78.42
74794;BME280;63320;50.768;6.724;2023-01-19T12:08:22;99266.69;;;2.89;78.77
74794;BME280;63320;50.768;6.724;2023-01-19T12:10:49;99275.16;;;2.94;79.02
74794;BME280;63320;50.768;6.724;2023-01-19T12:13:20;99260.56;;;2.92;77.93
74794;BME280;63320;50.768;6.724;2023-01-19T12:15:46;99253.69;;;2.89;77.73
74794;BME280;63320;50.768;6.724;2023-01-19T12:18:15;99254.19;;;3.00;78.19
74794;BME280;63320;50.768;6.724;2023-01-19T12:20:46;99263.09;;;2.93;77.25
74794;BME280;63320;50.768;6.724;2023-01-19T12:23:24;99259.28;;;3.03;77.40
74794;BME280;63320;50.768;6.724;2023-01-19T12:26:01;99258.38;;;3.04;76.85
74794;BME280;63320;50.768;6.724;2023-01-19T12:28:32;99265.69;;;2.93;77.10
74794;BME280;63320;50.768;6.724;2023-01-19T12:30:59;99266.31;;;3.00;77.31
74794;BME280;63320;50.768;6.724;2023-01-19T12:33:33;99260.28;;;2.99;77.31
74794;BME280;63320;50.768;6.724;2023-01-19T12:36:02;99261.63;;;3.11;77.46
74794;BME280;63320;50.768;6.724;2023-01-19T12:38:43;99254.78;;;3.08;77.27
74794;BME280;63320;50.768;6.724;2023-01-19T12:41:26;99256.59;;;3.06;77.51
74794;BME280;63320;50.768;6.724;2023-01-19T12:44:21;99255.03;;;3.01;77.92
74794;BME280;63320;50.768;6.724;2023-01-19T12:46:49;99251.41;;;3.06;78.76
74794;BME280;63320;50.768;6.724;2023-01-19T12:49:24;99260.19;;;3.02;77.68
74794;BME280;63320;50.768;6.724;2023-01-19T12:51:54;99261.81;;;3.06;77.55
74794;BME280;63320;50.768;6.724;2023-01-19T12:54:26;99256.63;;;3.05;77.98
74794;BME280;63320;50.768;6.724;2023-01-19T12:56:57;99260.47;;;3.20;77.77
74794;BME280;63320;50.768;6.724;2023-01-19T12:59:24;99249.34;;;3.16;77.25
74794;BME280;63320;50.768;6.724;2023-01-19T13:08:26;99261.28;;;2.95;76.88
74794;BME280;63320;50.768;6.724;2023-01-19T13:13:45;99267.78;;;3.08;77.68
74794;BME280;63320;50.768;6.724;2023-01-19T13:17:03;99257.28;;;2.85;77.47
74794;BME280;63320;50.768;6.724;2023-01-19T13:19:46;99261.41;;;2.92;77.61
74794;BME280;63320;50.768;6.724;2023-01-19T13:25:06;99261.22;;;2.70;78.28